sensor_id;sensor_type;location;lat;lon;timestamp;temperature;humidity
21678;DHT22;11000;50.360;7.582;2023-04-03T00:01:15;5.20;99.90
21678;DHT22;11000;50.360;7.582;2023-04-03T00:03:36;5.20;99.90
21678;DHT22;11000;50.360;7.582;2023-04-03T00:05:56;5.40;99.90
21678;DHT22;11000;50.360;7.582;2023-04-03T00:08:17;5.40;99.90
21678;DHT22;11000;50.360;7.582;2023-04-03T00:10:38;5.50;99.90
21678;DHT22;11000;50.360;7.582;2023-04-03T00:12:58;5.60;99.90
21678;DHT22;11000;50.360;7.582;2023-04-03T00:15:19;5.50;99.90
21678;DHT22;11000;50.360;7.582;2023-04-03T00:17:39;5.60;99.90
21678;DHT22;11000;50.360;7.582;2023-04-03T00:20:01;5.60;99.90
21678;DHT22;11000;50.360;7.582;2023-04-03T00:22:21;5.60;99.90
21678;DHT22;11000;50.360;7.582;2023-04-03T00:24:42;5.60;99.90
21678;DHT22;11000;50.360;7.582;2023-04-03T00:27:02;5.60;99.90
21678;DHT22;11000;50.360;7.582;2023-04-03T00:29:23;5.70;99.90
21678;DHT22;11000;50.360;7.582;2023-04-03T00:31:43;5.70;99.90
21678;DHT22;11000;50.360;7.582;2023-04-03T00:34:04;5.70;99.90
21678;DHT22;11000;50.360;7.582;2023-04-03T00:36:24;5.70;99.90
21678;DHT22;11000;50.360;7.582;2023-04-03T00:38:45;5.70;99.90
21678;DHT22;11000;50.360;7.582;2023-04-03T00:41:06;5.70;99.90
21678;DHT22;11000;50.360;7.582;2023-04-03T00:43:27;5.70;99.90
21678;DHT22;11000;50.360;7.582;2023-04-03T00:45:50;5.70;99.90
21678;DHT22;11000;50.360;7.582;2023-04-03T00:48:15;5.60;99.90
21678;DHT22;11000;50.360;7.582;2023-04-03T00:50:39;5.60;99.90
21678;DHT22;11000;50.360;7.582;2023-04-03T00:53:00;5.60;99.90
21678;DHT22;11000;50.360;7.582;2023-04-03T00:55:22;5.70;99.90
21678;DHT22;11000;50.360;7.582;2023-04-03T00:57:44;5.70;99.90
21678;DHT22;11000;50.360;7.582;2023-04-03T01:00:10;5.70;99.90
21678;DHT22;11000;50.360;7.582;2023-04-03T01:02:31;5.70;99.90
21678;DHT22;11000;50.360;7.582;2023-04-03T01:04:52;5.80;99.90
21678;DHT22;11000;50.360;7.582;2023-04-03T01:07:22;5.70;99.90
21678;DHT22;11000;50.360;7.582;2023-04-03T01:09:45;5.70;99.90
21678;DHT22;11000;50.360;7.582;2023-04-03T01:14:44;5.70;99.90
21678;DHT22;11000;50.360;7.582;2023-04-03T01:19:52;5.70;99.90
21678;DHT22;11000;50.360;7.582;2023-04-03T01:22:28;5.70;99.90
21678;DHT22;11000;50.360;7.582;2023-04-03T01:24:51;5.60;99.90
21678;DHT22;11000;50.360;7.582;2023-04-03T01:27:13;5.60;99.90
21678;DHT22;11000;50.360;7.582;2023-04-03T01:29:34;5.60;99.90
21678;DHT22;11000;50.360;7.582;2023-04-03T01:31:57;5.50;99.90
21678;DHT22;11000;50.360;7.582;2023-04-03T01:34:18;5.60;99.90
21678;DHT22;11000;50.360;7.582;2023-04-03T01:36:39;5.60;99.90
21678;DHT22;11000;50.360;7.582;2023-04-03T01:39:00;5.60;99.90
21678;DHT22;11000;50.360;7.582;2023-04-03T01:41:22;5.60;99.90
21678;DHT22;11000;50.360;7.582;2023-04-03T01:43:43;5.60;99.90
21678;DHT22;11000;50.360;7.582;2023-04-03T01:46:04;5.60;99.90
21678;DHT22;11000;50.360;7.582;2023-04-03T01:48:24;5.60;99.90
21678;DHT22;11000;50.360;7.582;2023-04-03T01:50:45;5.60;99.90
21678;DHT22;11000;50.360;7.582;2023-04-03T01:53:06;5.50;99.90
21678;DHT22;11000;50.360;7.582;2023-04-03T01:55:26;5.60;99.90
21678;DHT22;11000;50.360;7.582;2023-04-03T01:57:47;5.60;99.90
21678;DHT22;11000;50.360;7.582;2023-04-03T02:00:08;5.60;99.90
21678;DHT22;11000;50.360;7.582;2023-04-03T02:02:29;5.60;99.90
21678;DHT22;11000;50.360;7.582;2023-04-03T02:04:50;5.70;99.90
21678;DHT22;11000;50.360;7.582;2023-04-03T02:07:10;5.70;99.90
21678;DHT22;11000;50.360;7.582;2023-04-03T02:09:31;5.70;99.90
21678;DHT22;11000;50.360;7.582;2023-04-03T02:11:51;5.70;99.90
21678;DHT22;11000;50.360;7.582;2023-04-03T02:14:12;5.70;99.90
21678;DHT22;11000;50.360;7.582;2023-04-03T02:16:32;5.60;99.90
21678;DHT22;11000;50.360;7.582;2023-04-03T02:18:52;5.60;99.90
21678;DHT22;11000;50.360;7.582;2023-04-03T02:21:13;5.50;99.90
21678;DHT22;11000;50.360;7.582;2023-04-03T02:23:34;5.40;99.90
21678;DHT22;11000;50.360;7.582;2023-04-03T02:26:09;5.40;99.90
21678;DHT22;11000;50.360;7.582;2023-04-03T02:28:29;5.50;99.90
21678;DHT22;11000;50.360;7.582;2023-04-03T02:30:50;5.60;99.90
21678;DHT22;11000;50.360;7.582;2023-04-03T02:33:10;5.60;99.90
21678;DHT22;11000;50.360;7.582;2023-04-03T02:35:31;5.60;99.90
21678;DHT22;11000;50.360;7.582;2023-04-03T02:37:51;5.60;99.90
21678;DHT22;11000;50.360;7.582;2023-04-03T02:40:12;5.60;99.90
21678;DHT22;11000;50.360;7.582;2023-04-03T02:42:32;5.60;99.90
21678;DHT22;11000;50.360;7.582;2023-04-03T02:44:53;5.50;99.90
21678;DHT22;11000;50.360;7.582;2023-04-03T02:47:13;5.60;99.90
21678;DHT22;11000;50.360;7.582;2023-04-03T02:49:34;5.60;99.90
21678;DHT22;11000;50.360;7.582;2023-04-03T02:51:54;5.60;99.90
21678;DHT22;11000;50.360;7.582;2023-04-03T02:54:15;5.60;99.90
21678;DHT22;11000;50.360;7.582;2023-04-03T02:56:35;5.50;99.90
21678;DHT22;11000;50.360;7.582;2023-04-03T02:58:56;5.60;99.90
21678;DHT22;11000;50.360;7.582;2023-04-03T03:01:17;5.50;99.90
21678;DHT22;11000;50.360;7.582;2023-04-03T03:03:38;5.50;99.90
21678;DHT22;11000;50.360;7.582;2023-04-03T03:06:07;5.50;99.90
21678;DHT22;11000;50.360;7.582;2023-04-03T03:08:27;5.50;99.90
21678;DHT22;11000;50.360;7.582;2023-04-03T03:10:48;5.60;99.90
21678;DHT22;11000;50.360;7.582;2023-04-03T03:13:09;5.50;99.90
21678;DHT22;11000;50.360;7.582;2023-04-03T03:15:30;5.50;99.90
21678;DHT22;11000;50.360;7.582;2023-04-03T03:17:50;5.40;99.90
21678;DHT22;11000;50.360;7.582;2023-04-03T03:20:11;5.40;99.90
21678;DHT22;11000;50.360;7.582;2023-04-03T03:22:34;5.40;99.90
21678;DHT22;11000;50.360;7.582;2023-04-03T03:24:55;5.40;99.90
21678;DHT22;11000;50.360;7.582;2023-04-03T03:27:16;5.40;99.90
21678;DHT22;11000;50.360;7.582;2023-04-03T03:29:36;5.40;99.90
21678;DHT22;11000;50.360;7.582;2023-04-03T03:31:57;5.40;99.90
21678;DHT22;11000;50.360;7.582;2023-04-03T03:34:17;5.40;99.90
21678;DHT22;11000;50.360;7.582;2023-04-03T03:36:38;5.40;99.90
21678;DHT22;11000;50.360;7.582;2023-04-03T03:38:59;5.30;99.90
21678;DHT22;11000;50.360;7.582;2023-04-03T03:41:19;5.40;99.90
21678;DHT22;11000;50.360;7.582;2023-04-03T03:43:40;5.30;99.90
21678;DHT22;11000;50.360;7.582;2023-04-03T03:46:01;5.30;99.90
21678;DHT22;11000;50.360;7.582;2023-04-03T03:48:21;5.30;99.90
21678;DHT22;11000;50.360;7.582;2023-04-03T03:50:42;5.30;99.90
21678;DHT22;11000;50.360;7.582;2023-04-03T03:53:03;5.20;99.90
21678;DHT22;11000;50.360;7.582;2023-04-03T03:55:23;5.20;99.90
21678;DHT22;11000;50.360;7.582;2023-04-03T03:57:44;5.20;99.90
21678;DHT22;11000;50.360;7.582;2023-04-03T04:00:05;5.20;99.90
21678;DHT22;11000;50.360;7.582;2023-04-03T04:02:27;5.20;99.90
21678;DHT22;11000;50.360;7.582;2023-04-03T04:04:48;5.10;99.90
21678;DHT22;11000;50.360;7.582;2023-04-03T04:07:09;5.10;99.90
21678;DHT22;11000;50.360;7.582;2023-04-03T04:09:29;5.00;99.90
21678;DHT22;11000;50.360;7.582;2023-04-03T04:11:50;5.00;99.90
21678;DHT22;11000;50.360;7.582;2023-04-03T04:14:10;5.00;99.90
21678;DHT22;11000;50.360;7.582;2023-04-03T04:16:32;4.90;99.90
21678;DHT22;11000;50.360;7.582;2023-04-03T04:18:53;4.90;99.90
21678;DHT22;11000;50.360;7.582;2023-04-03T04:21:13;4.80;99.90
21678;DHT22;11000;50.360;7.582;2023-04-03T04:23:34;4.80;99.90
21678;DHT22;11000;50.360;7.582;2023-04-03T04:25:54;4.80;99.90
21678;DHT22;11000;50.360;7.582;2023-04-03T04:28:15;4.80;99.90
21678;DHT22;11000;50.360;7.582;2023-04-03T04:30:36;4.70;99.90
21678;DHT22;11000;50.360;7.582;2023-04-03T04:32:56;4.60;99.90
21678;DHT22;11000;50.360;7.582;2023-04-03T04:35:17;4.60;99.90
21678;DHT22;11000;50.360;7.582;2023-04-03T04:37:37;4.50;99.90
21678;DHT22;11000;50.360;7.582;2023-04-03T04:39:58;4.50;99.90
21678;DHT22;11000;50.360;7.582;2023-04-03T04:42:19;4.50;99.90
21678;DHT22;11000;50.360;7.582;2023-04-03T04:44:39;4.60;99.90
21678;DHT22;11000;50.360;7.582;2023-04-03T04:47:00;4.50;99.90
21678;DHT22;11000;50.360;7.582;2023-04-03T04:49:20;4.50;99.90
21678;DHT22;11000;50.360;7.582;2023-04-03T04:51:41;4.60;99.90
21678;DHT22;11000;50.360;7.582;2023-04-03T04:54:01;4.50;99.90
21678;DHT22;11000;50.360;7.582;2023-04-03T04:56:22;4.60;99.90
21678;DHT22;11000;50.360;7.582;2023-04-03T04:58:42;4.60;99.90
21678;DHT22;11000;50.360;7.582;2023-04-03T05:01:05;4.60;99.90
21678;DHT22;11000;50.360;7.582;2023-04-03T05:03:26;4.60;99.90
21678;DHT22;11000;50.360;7.582;2023-04-03T05:05:46;4.60;99.90
21678;DHT22;11000;50.360;7.582;2023-04-03T05:08:07;4.60;99.90
21678;DHT22;11000;50.360;7.582;2023-04-03T05:10:28;4.60;99.90
21678;DHT22;11000;50.360;7.582;2023-04-03T05:12:49;4.50;99.90
21678;DHT22;11000;50.360;7.582;2023-04-03T05:15:10;4.40;99.90
21678;DHT22;11000;50.360;7.582;2023-04-03T05:17:30;4.40;99.90
21678;DHT22;11000;50.360;7.582;2023-04-03T05:19:51;4.40;99.90
21678;DHT22;11000;50.360;7.582;2023-04-03T05:22:11;4.40;99.90
21678;DHT22;11000;50.360;7.582;2023-04-03T05:24:32;4.40;99.90
21678;DHT22;11000;50.360;7.582;2023-04-03T05:26:53;4.40;99.90
21678;DHT22;11000;50.360;7.582;2023-04-03T05:29:13;4.40;99.90
21678;DHT22;11000;50.360;7.582;2023-04-03T05:31:34;4.30;99.90
21678;DHT22;11000;50.360;7.582;2023-04-03T05:33:55;4.30;99.90
21678;DHT22;11000;50.360;7.582;2023-04-03T05:36:15;4.20;99.90
21678;DHT22;11000;50.360;7.582;2023-04-03T05:38:36;4.30;99.90
21678;DHT22;11000;50.360;7.582;2023-04-03T05:40:56;4.30;99.90
21678;DHT22;11000;50.360;7.582;2023-04-03T05:43:17;4.20;99.90
21678;DHT22;11000;50.360;7.582;2023-04-03T05:45:37;4.20;99.90
21678;DHT22;11000;50.360;7.582;2023-04-03T05:47:58;4.20;99.90
21678;DHT22;11000;50.360;7.582;2023-04-03T05:50:19;4.20;99.90
21678;DHT22;11000;50.360;7.582;2023-04-03T05:52:44;4.20;99.90
21678;DHT22;11000;50.360;7.582;2023-04-03T05:55:06;4.20;99.90
21678;DHT22;11000;50.360;7.582;2023-04-03T05:57:26;4.20;99.90
21678;DHT22;11000;50.360;7.582;2023-04-03T05:59:47;4.30;99.90
21678;DHT22;11000;50.360;7.582;2023-04-03T06:02:20;4.30;99.90
21678;DHT22;11000;50.360;7.582;2023-04-03T06:04:41;4.30;99.90
21678;DHT22;11000;50.360;7.582;2023-04-03T06:07:01;4.40;99.90
21678;DHT22;11000;50.360;7.582;2023-04-03T06:09:24;4.30;99.90
21678;DHT22;11000;50.360;7.582;2023-04-03T06:11:45;4.40;99.90
21678;DHT22;11000;50.360;7.582;2023-04-03T06:14:06;4.40;99.90
21678;DHT22;11000;50.360;7.582;2023-04-03T06:16:27;4.40;99.90
21678;DHT22;11000;50.360;7.582;2023-04-03T06:18:47;4.40;99.90
21678;DHT22;11000;50.360;7.582;2023-04-03T06:21:08;4.40;99.90
21678;DHT22;11000;50.360;7.582;2023-04-03T06:23:29;4.30;99.90
21678;DHT22;11000;50.360;7.582;2023-04-03T06:25:49;4.40;99.90
21678;DHT22;11000;50.360;7.582;2023-04-03T06:28:10;4.60;99.90
21678;DHT22;11000;50.360;7.582;2023-04-03T06:30:31;4.80;99.90
21678;DHT22;11000;50.360;7.582;2023-04-03T06:32:51;5.00;99.90
21678;DHT22;11000;50.360;7.582;2023-04-03T06:35:12;5.40;99.90
21678;DHT22;11000;50.360;7.582;2023-04-03T06:37:33;5.40;99.90
21678;DHT22;11000;50.360;7.582;2023-04-03T06:39:53;5.40;99.90
21678;DHT22;11000;50.360;7.582;2023-04-03T06:42:14;5.70;99.90
21678;DHT22;11000;50.360;7.582;2023-04-03T06:44:35;5.90;99.90
21678;DHT22;11000;50.360;7.582;2023-04-03T06:46:56;6.20;99.90
21678;DHT22;11000;50.360;7.582;2023-04-03T06:49:16;6.40;99.90
21678;DHT22;11000;50.360;7.582;2023-04-03T06:51:37;6.20;99.90
21678;DHT22;11000;50.360;7.582;2023-04-03T06:53:58;6.80;99.90
21678;DHT22;11000;50.360;7.582;2023-04-03T06:56:20;6.60;99.90
21678;DHT22;11000;50.360;7.582;2023-04-03T06:58:41;6.20;99.90
21678;DHT22;11000;50.360;7.582;2023-04-03T07:01:01;6.30;99.90
21678;DHT22;11000;50.360;7.582;2023-04-03T07:03:22;6.70;99.90
21678;DHT22;11000;50.360;7.582;2023-04-03T07:05:44;7.10;99.90
21678;DHT22;11000;50.360;7.582;2023-04-03T07:08:05;7.70;99.90
21678;DHT22;11000;50.360;7.582;2023-04-03T07:10:25;7.50;99.90
21678;DHT22;11000;50.360;7.582;2023-04-03T07:12:46;6.80;99.90
21678;DHT22;11000;50.360;7.582;2023-04-03T07:15:07;7.00;99.90
21678;DHT22;11000;50.360;7.582;2023-04-03T07:17:28;7.30;99.90
21678;DHT22;11000;50.360;7.582;2023-04-03T07:19:49;7.30;99.90
21678;DHT22;11000;50.360;7.582;2023-04-03T07:22:09;6.90;99.90
21678;DHT22;11000;50.360;7.582;2023-04-03T07:24:31;6.70;99.90
21678;DHT22;11000;50.360;7.582;2023-04-03T07:26:52;6.90;99.90
21678;DHT22;11000;50.360;7.582;2023-04-03T07:29:13;7.30;99.90
21678;DHT22;11000;50.360;7.582;2023-04-03T07:31:34;7.60;99.90
21678;DHT22;11000;50.360;7.582;2023-04-03T07:33:54;7.40;99.90
21678;DHT22;11000;50.360;7.582;2023-04-03T07:36:19;7.50;99.90
21678;DHT22;11000;50.360;7.582;2023-04-03T07:38:40;7.50;99.90
21678;DHT22;11000;50.360;7.582;2023-04-03T07:41:00;7.30;99.90
21678;DHT22;11000;50.360;7.582;2023-04-03T07:43:21;6.90;99.90
21678;DHT22;11000;50.360;7.582;2023-04-03T07:45:42;6.90;99.90
21678;DHT22;11000;50.360;7.582;2023-04-03T07:48:03;7.20;99.90
21678;DHT22;11000;50.360;7.582;2023-04-03T07:50:24;7.80;99.90
21678;DHT22;11000;50.360;7.582;2023-04-03T07:52:45;7.40;99.90
21678;DHT22;11000;50.360;7.582;2023-04-03T07:55:07;7.10;99.90
21678;DHT22;11000;50.360;7.582;2023-04-03T07:57:27;6.90;99.90
21678;DHT22;11000;50.360;7.582;2023-04-03T07:59:48;6.80;99.90
21678;DHT22;11000;50.360;7.582;2023-04-03T08:02:09;6.60;99.90
21678;DHT22;11000;50.360;7.582;2023-04-03T08:04:30;6.60;99.90
21678;DHT22;11000;50.360;7.582;2023-04-03T08:06:51;7.00;99.90
21678;DHT22;11000;50.360;7.582;2023-04-03T08:09:11;6.90;99.90
21678;DHT22;11000;50.360;7.582;2023-04-03T08:11:32;7.00;99.90
21678;DHT22;11000;50.360;7.582;2023-04-03T08:13:52;7.60;99.90
21678;DHT22;11000;50.360;7.582;2023-04-03T08:16:17;8.50;99.90
21678;DHT22;11000;50.360;7.582;2023-04-03T08:18:38;8.10;99.90
21678;DHT22;11000;50.360;7.582;2023-04-03T08:20:59;8.50;99.90
21678;DHT22;11000;50.360;7.582;2023-04-03T08:23:20;9.20;99.90
21678;DHT22;11000;50.360;7.582;2023-04-03T08:25:42;9.10;99.90
21678;DHT22;11000;50.360;7.582;2023-04-03T08:28:02;9.10;99.90
21678;DHT22;11000;50.360;7.582;2023-04-03T08:30:23;9.00;99.90
21678;DHT22;11000;50.360;7.582;2023-04-03T08:32:43;9.00;99.90
21678;DHT22;11000;50.360;7.582;2023-04-03T08:35:04;9.20;99.90
21678;DHT22;11000;50.360;7.582;2023-04-03T08:37:25;8.10;99.90
21678;DHT22;11000;50.360;7.582;2023-04-03T08:39:46;7.50;99.90
21678;DHT22;11000;50.360;7.582;2023-04-03T08:44:57;7.10;99.90
21678;DHT22;11000;50.360;7.582;2023-04-03T08:49:48;7.80;99.90
21678;DHT22;11000;50.360;7.582;2023-04-03T08:52:13;7.70;99.90
21678;DHT22;11000;50.360;7.582;2023-04-03T08:54:55;7.30;99.90
21678;DHT22;11000;50.360;7.582;2023-04-03T08:57:16;6.90;99.90
21678;DHT22;11000;50.360;7.582;2023-04-03T08:59:38;7.10;99.90
21678;DHT22;11000;50.360;7.582;2023-04-03T09:02:03;7.50;99.90
21678;DHT22;11000;50.360;7.582;2023-04-03T09:04:28;7.70;99.90
21678;DHT22;11000;50.360;7.582;2023-04-03T09:07:03;7.80;99.90
21678;DHT22;11000;50.360;7.582;2023-04-03T09:09:39;7.90;99.90
21678;DHT22;11000;50.360;7.582;2023-04-03T09:12:16;8.10;99.90
21678;DHT22;11000;50.360;7.582;2023-04-03T09:17:45;8.10;99.90
21678;DHT22;11000;50.360;7.582;2023-04-03T09:20:17;8.30;99.90
21678;DHT22;11000;50.360;7.582;2023-04-03T09:22:43;8.30;99.90
21678;DHT22;11000;50.360;7.582;2023-04-03T09:25:14;8.20;99.90
21678;DHT22;11000;50.360;7.582;2023-04-03T09:27:35;7.70;99.90
21678;DHT22;11000;50.360;7.582;2023-04-03T09:29:57;7.80;99.90
21678;DHT22;11000;50.360;7.582;2023-04-03T09:32:32;8.00;99.90
21678;DHT22;11000;50.360;7.582;2023-04-03T09:34:56;7.80;99.90
21678;DHT22;11000;50.360;7.582;2023-04-03T09:37:41;7.70;99.90
21678;DHT22;11000;50.360;7.582;2023-04-03T09:40:03;8.00;99.90
21678;DHT22;11000;50.360;7.582;2023-04-03T09:42:25;8.30;99.90
21678;DHT22;11000;50.360;7.582;2023-04-03T09:45:00;8.30;99.90
21678;DHT22;11000;50.360;7.582;2023-04-03T09:47:34;7.90;99.90
21678;DHT22;11000;50.360;7.582;2023-04-03T09:52:34;7.10;99.90
21678;DHT22;11000;50.360;7.582;2023-04-03T09:55:16;7.30;99.90
21678;DHT22;11000;50.360;7.582;2023-04-03T09:57:37;7.60;99.90
21678;DHT22;11000;50.360;7.582;2023-04-03T10:00:00;7.80;99.90
21678;DHT22;11000;50.360;7.582;2023-04-03T10:02:23;7.70;99.90
21678;DHT22;11000;50.360;7.582;2023-04-03T10:04:44;7.40;99.90
21678;DHT22;11000;50.360;7.582;2023-04-03T10:07:26;7.70;99.90
21678;DHT22;11000;50.360;7.582;2023-04-03T10:09:55;7.50;99.90
21678;DHT22;11000;50.360;7.582;2023-04-03T10:12:19;7.30;99.90
21678;DHT22;11000;50.360;7.582;2023-04-03T10:17:33;7.80;99.90
21678;DHT22;11000;50.360;7.582;2023-04-03T10:25:02;7.80;99.90
21678;DHT22;11000;50.360;7.582;2023-04-03T10:32:58;7.20;99.90
21678;DHT22;11000;50.360;7.582;2023-04-03T10:35:45;7.20;99.90
21678;DHT22;11000;50.360;7.582;2023-04-03T10:41:47;7.40;99.90
21678;DHT22;11000;50.360;7.582;2023-04-03T10:47:15;7.30;99.90
21678;DHT22;11000;50.360;7.582;2023-04-03T10:49:54;6.90;99.90
21678;DHT22;11000;50.360;7.582;2023-04-03T10:52:37;6.80;99.90
21678;DHT22;11000;50.360;7.582;2023-04-03T10:57:33;7.30;99.90
21678;DHT22;11000;50.360;7.582;2023-04-03T11:00:04;7.40;99.90
21678;DHT22;11000;50.360;7.582;2023-04-03T11:02:31;7.60;99.90
21678;DHT22;11000;50.360;7.582;2023-04-03T11:05:34;7.30;99.90
21678;DHT22;11000;50.360;7.582;2023-04-03T11:07:58;7.50;99.90
21678;DHT22;11000;50.360;7.582;2023-04-03T11:10:37;7.40;99.90
21678;DHT22;11000;50.360;7.582;2023-04-03T11:13:17;7.10;99.90
21678;DHT22;11000;50.360;7.582;2023-04-03T11:15:39;7.10;99.90
21678;DHT22;11000;50.360;7.582;2023-04-03T11:18:07;7.50;99.90
21678;DHT22;11000;50.360;7.582;2023-04-03T11:20:31;8.00;99.90
21678;DHT22;11000;50.360;7.582;2023-04-03T11:23:02;8.00;98.10
21678;DHT22;11000;50.360;7.582;2023-04-03T11:25:25;7.90;93.20
21678;DHT22;11000;50.360;7.582;2023-04-03T11:28:04;7.50;93.40
21678;DHT22;11000;50.360;7.582;2023-04-03T11:30:30;7.80;98.30
21678;DHT22;11000;50.360;7.582;2023-04-03T11:35:27;8.10;99.50
21678;DHT22;11000;50.360;7.582;2023-04-03T11:37:52;8.80;95.50
21678;DHT22;11000;50.360;7.582;2023-04-03T11:42:40;8.70;94.90
21678;DHT22;11000;50.360;7.582;2023-04-03T11:48:41;8.70;91.70
21678;DHT22;11000;50.360;7.582;2023-04-03T11:50:48;8.00;92.80
21678;DHT22;11000;50.360;7.582;2023-04-03T11:53:36;7.90;94.30
21678;DHT22;11000;50.360;7.582;2023-04-03T11:55:59;8.20;94.40
21678;DHT22;11000;50.360;7.582;2023-04-03T11:58:23;7.90;92.40
21678;DHT22;11000;50.360;7.582;2023-04-03T12:05:46;7.90;88.30
21678;DHT22;11000;50.360;7.582;2023-04-03T12:08:43;7.80;85.70
21678;DHT22;11000;50.360;7.582;2023-04-03T12:13:32;9.70;90.10
21678;DHT22;11000;50.360;7.582;2023-04-03T12:15:53;9.20;81.10
21678;DHT22;11000;50.360;7.582;2023-04-03T12:18:42;8.30;83.20
21678;DHT22;11000;50.360;7.582;2023-04-03T12:21:03;8.10;88.90
21678;DHT22;11000;50.360;7.582;2023-04-03T12:25:50;8.60;84.40
21678;DHT22;11000;50.360;7.582;2023-04-03T12:28:11;8.40;84.70
21678;DHT22;11000;50.360;7.582;2023-04-03T12:30:32;8.10;81.20
21678;DHT22;11000;50.360;7.582;2023-04-03T12:33:02;8.50;85.60
21678;DHT22;11000;50.360;7.582;2023-04-03T12:45:44;9.70;74.60
21678;DHT22;11000;50.360;7.582;2023-04-03T12:48:16;9.50;77.40
21678;DHT22;11000;50.360;7.582;2023-04-03T12:50:37;9.90;74.40
21678;DHT22;11000;50.360;7.582;2023-04-03T12:53:04;10.20;70.10
21678;DHT22;11000;50.360;7.582;2023-04-03T12:55:25;10.10;66.40
21678;DHT22;11000;50.360;7.582;2023-04-03T12:57:46;10.40;69.90
21678;DHT22;11000;50.360;7.582;2023-04-03T13:00:32;9.50;65.20
21678;DHT22;11000;50.360;7.582;2023-04-03T13:02:53;9.60;69.60
21678;DHT22;11000;50.360;7.582;2023-04-03T13:05:17;9.60;69.60
21678;DHT22;11000;50.360;7.582;2023-04-03T13:07:38;10.20;71.30
21678;DHT22;11000;50.360;7.582;2023-04-03T13:10:15;10.60;64.60
21678;DHT22;11000;50.360;7.582;2023-04-03T13:12:50;10.50;63.40
21678;DHT22;11000;50.360;7.582;2023-04-03T13:15:26;10.90;65.00
21678;DHT22;11000;50.360;7.582;2023-04-03T13:17:47;10.90;66.00
21678;DHT22;11000;50.360;7.582;2023-04-03T13:20:17;10.50;65.30
21678;DHT22;11000;50.360;7.582;2023-04-03T13:22:55;9.40;63.60
21678;DHT22;11000;50.360;7.582;2023-04-03T13:25:17;8.80;67.40
21678;DHT22;11000;50.360;7.582;2023-04-03T13:27:41;8.80;71.40
21678;DHT22;11000;50.360;7.582;2023-04-03T13:30:04;9.30;72.50
21678;DHT22;11000;50.360;7.582;2023-04-03T13:32:27;9.60;74.10
21678;DHT22;11000;50.360;7.582;2023-04-03T13:34:49;10.30;71.90
21678;DHT22;11000;50.360;7.582;2023-04-03T13:42:31;10.10;66.40
21678;DHT22;11000;50.360;7.582;2023-04-03T13:47:42;9.70;67.30
21678;DHT22;11000;50.360;7.582;2023-04-03T13:50:24;9.20;66.10
21678;DHT22;11000;50.360;7.582;2023-04-03T13:52:55;9.00;66.40
21678;DHT22;11000;50.360;7.582;2023-04-03T13:57:57;8.90;66.70
21678;DHT22;11000;50.360;7.582;2023-04-03T14:02:47;9.40;67.70
21678;DHT22;11000;50.360;7.582;2023-04-03T14:05:08;10.00;69.10
21678;DHT22;11000;50.360;7.582;2023-04-03T14:07:30;10.60;67.60
21678;DHT22;11000;50.360;7.582;2023-04-03T14:09:52;11.10;63.40
21678;DHT22;11000;50.360;7.582;2023-04-03T14:12:21;10.80;62.90
21678;DHT22;11000;50.360;7.582;2023-04-03T14:14:45;10.20;64.70
21678;DHT22;11000;50.360;7.582;2023-04-03T14:17:15;9.60;67.40
21678;DHT22;11000;50.360;7.582;2023-04-03T14:19:36;9.50;71.30
21678;DHT22;11000;50.360;7.582;2023-04-03T14:21:58;9.70;73.20
21678;DHT22;11000;50.360;7.582;2023-04-03T14:24:20;9.60;72.20
21678;DHT22;11000;50.360;7.582;2023-04-03T14:26:41;9.80;74.60
21678;DHT22;11000;50.360;7.582;2023-04-03T14:29:02;9.80;72.10
21678;DHT22;11000;50.360;7.582;2023-04-03T14:31:23;9.60;72.50
21678;DHT22;11000;50.360;7.582;2023-04-03T14:33:44;9.40;72.90
21678;DHT22;11000;50.360;7.582;2023-04-03T14:36:15;9.40;72.70
21678;DHT22;11000;50.360;7.582;2023-04-03T14:38:36;9.10;71.70
21678;DHT22;11000;50.360;7.582;2023-04-03T14:40:57;9.20;71.80
21678;DHT22;11000;50.360;7.582;2023-04-03T14:43:18;9.20;70.90
21678;DHT22;11000;50.360;7.582;2023-04-03T14:45:40;9.50;73.90
21678;DHT22;11000;50.360;7.582;2023-04-03T14:48:01;10.00;72.90
21678;DHT22;11000;50.360;7.582;2023-04-03T14:50:25;10.30;70.10
21678;DHT22;11000;50.360;7.582;2023-04-03T14:52:48;10.20;68.40
21678;DHT22;11000;50.360;7.582;2023-04-03T14:55:18;10.40;68.80
21678;DHT22;11000;50.360;7.582;2023-04-03T14:57:39;10.60;68.10
21678;DHT22;11000;50.360;7.582;2023-04-03T15:00:00;10.60;69.30
21678;DHT22;11000;50.360;7.582;2023-04-03T15:02:29;10.80;65.20
21678;DHT22;11000;50.360;7.582;2023-04-03T15:04:50;10.80;65.60
21678;DHT22;11000;50.360;7.582;2023-04-03T15:07:10;10.50;63.20
21678;DHT22;11000;50.360;7.582;2023-04-03T15:09:31;9.90;62.90
21678;DHT22;11000;50.360;7.582;2023-04-03T15:11:53;9.90;65.00
21678;DHT22;11000;50.360;7.582;2023-04-03T15:14:14;10.20;65.00
21678;DHT22;11000;50.360;7.582;2023-04-03T15:16:35;10.50;67.10
21678;DHT22;11000;50.360;7.582;2023-04-03T15:18:55;10.50;63.20
21678;DHT22;11000;50.360;7.582;2023-04-03T15:21:16;10.30;63.50
21678;DHT22;11000;50.360;7.582;2023-04-03T15:23:36;9.90;64.10
21678;DHT22;11000;50.360;7.582;2023-04-03T15:25:57;10.10;65.80
21678;DHT22;11000;50.360;7.582;2023-04-03T15:28:32;10.40;65.70
21678;DHT22;11000;50.360;7.582;2023-04-03T15:30:54;10.50;68.20
21678;DHT22;11000;50.360;7.582;2023-04-03T15:33:15;10.90;65.90
21678;DHT22;11000;50.360;7.582;2023-04-03T15:35:35;10.70;61.40
21678;DHT22;11000;50.360;7.582;2023-04-03T15:37:56;10.40;61.70
21678;DHT22;11000;50.360;7.582;2023-04-03T15:40:16;10.20;61.90
21678;DHT22;11000;50.360;7.582;2023-04-03T15:42:37;10.00;63.50
21678;DHT22;11000;50.360;7.582;2023-04-03T15:44:58;9.60;65.20
21678;DHT22;11000;50.360;7.582;2023-04-03T15:47:19;9.60;68.20
21678;DHT22;11000;50.360;7.582;2023-04-03T15:49:40;9.90;69.60
21678;DHT22;11000;50.360;7.582;2023-04-03T15:52:01;9.80;69.00
21678;DHT22;11000;50.360;7.582;2023-04-03T15:54:21;10.10;68.60
21678;DHT22;11000;50.360;7.582;2023-04-03T15:56:45;10.10;66.20
21678;DHT22;11000;50.360;7.582;2023-04-03T15:59:05;10.20;67.50
21678;DHT22;11000;50.360;7.582;2023-04-03T16:01:26;10.50;70.10
21678;DHT22;11000;50.360;7.582;2023-04-03T16:03:47;10.80;68.60
21678;DHT22;11000;50.360;7.582;2023-04-03T16:06:07;10.70;68.00
21678;DHT22;11000;50.360;7.582;2023-04-03T16:08:28;10.40;64.70
21678;DHT22;11000;50.360;7.582;2023-04-03T16:10:48;10.00;65.30
21678;DHT22;11000;50.360;7.582;2023-04-03T16:13:09;9.60;67.60
21678;DHT22;11000;50.360;7.582;2023-04-03T16:15:30;9.70;68.80
21678;DHT22;11000;50.360;7.582;2023-04-03T16:17:52;9.80;68.50
21678;DHT22;11000;50.360;7.582;2023-04-03T16:20:13;9.70;67.50
21678;DHT22;11000;50.360;7.582;2023-04-03T16:22:34;9.30;68.20
21678;DHT22;11000;50.360;7.582;2023-04-03T16:24:55;9.20;70.10
21678;DHT22;11000;50.360;7.582;2023-04-03T16:27:16;9.30;73.00
21678;DHT22;11000;50.360;7.582;2023-04-03T16:29:36;9.20;70.90
21678;DHT22;11000;50.360;7.582;2023-04-03T16:31:58;9.30;74.00
21678;DHT22;11000;50.360;7.582;2023-04-03T16:34:18;9.40;73.40
21678;DHT22;11000;50.360;7.582;2023-04-03T16:36:39;9.40;72.20
21678;DHT22;11000;50.360;7.582;2023-04-03T16:38:59;9.40;71.90